Rotterdam Express — DMRX — position and weather

sailwx.info

Track history (hours):
 
Tides and Currents Weather Stations Pressure Air Temp Water Temp Dewpoint Dewpoint Depression Visibility Wind Speed Wind Dir Waves Ship Positions

Rotterdam Express

Last reported at 2014-Dec-20 12:00 UTC. Time now 2014-Dec-20 15:07 UTC.
Position N 39°48' W 057°24'.

Length 294 m; beam 32.2 m; draft 13.6 m.

Type: Ship. MMSI: 211335760.

Wind from 020 at 16 knots

Waves 1.0 meters (3 feet)

Barometer 1012.0 mb
Air temperature 14.0 ° C
Visibility: greater than 10.8 NM
Dewpoint 8.6 ° C
Water temperature 22.0 ° C

Date/timePositionNaut miles runAvg speedWind from/ knotsBaromVisibWave heightAir tempDewpointWater temp
2014-Dec-20 12:00N 39°48' W 057°24'13414.8 020 / 161012.010.8 1.014.0 8.622.0
2014-Dec-20 03:00N 38°42' W 059°54'4514.9 350 / 131010.0 5.4 3.015.010.622.0
2014-Dec-20 00:00N 38°18' W 060°42'54415.1 320 / 201010.010.8 1.514.514.023.0
2014-Dec-18 12:00N 33°54' W 070°30'   250 / 181017.010.8 1.018.711.023.0
2014-Dec-15 08:30N 26°42' W 079°25'1616.4
2014-Dec-15 07:31N 26°26' W 079°28'1616.8
2014-Dec-15 06:34N 26°10' W 079°31'1717.3
2014-Dec-15 05:33N 25°53' W 079°33'20814.3
2014-Dec-14 15:00N 23°48' W 082°36'53714.3 020 / 121019.010.8 19.514.527.0
2014-Dec-13 01:26N 29°55' W 089°55'10 9.8
2014-Dec-13 00:23N 29°55' W 090°07'0 0.2
2014-Dec-12 23:29N 29°55' W 090°07'0 0.0
2014-Dec-12 21:23N 29°55' W 090°07'0 0.0
2014-Dec-12 20:32N 29°55' W 090°07'0 0.0
2014-Dec-12 11:28N 29°55' W 090°07'9 3.9
2014-Dec-12 09:09N 29°53' W 089°57'6 8.6
2014-Dec-12 08:26N 29°47' W 090°01'9 9.7
2014-Dec-12 07:33N 29°39' W 089°57'1210.5
2014-Dec-12 06:24N 29°33' W 089°46'88 7.1
2014-Dec-11 18:00N 28°06' W 090°00'24612.0 040 / 61025.0 5.4 2.019.0 8.324.0
2014-Dec-10 21:25N 29°12' W 094°31'1314.0
2014-Dec-10 20:30N 29°20' W 094°42'1111.9
2014-Dec-10 19:32N 29°28' W 094°51'1111.4
2014-Dec-10 18:33N 29°38' W 094°58'4 3.6
2014-Dec-10 17:33N 29°41' W 095°00'0 0.0
2014-Dec-10 16:33N 29°41' W 095°00'0 0.0
2014-Dec-10 15:33N 29°41' W 095°00'0 0.0
2014-Dec-10 14:33N 29°41' W 095°00'0 0.0
2014-Dec-10 13:33N 29°41' W 095°00'0 0.0
2014-Dec-10 12:31N 29°41' W 095°00'  
Track history (hours):
 
Tides and Currents Weather Stations Pressure Air Temp Water Temp Dewpoint Dewpoint Depression Visibility Wind Speed Wind Dir Waves Ship Positions

Rotterdam Express

Last reported at 2014-Dec-20 12:00 UTC. Time now 2014-Dec-20 15:07 UTC.
Position N 39°48' W 057°24'.

Length 294 m; beam 32.2 m; draft 13.6 m.

Type: Ship. MMSI: 211335760.

Wind from 020 at 16 knots

Waves 1.0 meters (3 feet)

Barometer 1012.0 mb
Air temperature 14.0 ° C
Visibility: greater than 10.8 NM
Dewpoint 8.6 ° C
Water temperature 22.0 ° C

Date/timePositionNaut miles runAvg speedWind from/ knotsBaromVisibWave heightAir tempDewpointWater temp
2014-Dec-20 12:00N 39°48' W 057°24'13414.8 020 / 161012.010.8 1.014.0 8.622.0
2014-Dec-20 03:00N 38°42' W 059°54'4514.9 350 / 131010.0 5.4 3.015.010.622.0
2014-Dec-20 00:00N 38°18' W 060°42'54415.1 320 / 201010.010.8 1.514.514.023.0
2014-Dec-18 12:00N 33°54' W 070°30'   250 / 181017.010.8 1.018.711.023.0
2014-Dec-15 08:30N 26°42' W 079°25'1616.4
2014-Dec-15 07:31N 26°26' W 079°28'1616.8
2014-Dec-15 06:34N 26°10' W 079°31'1717.3
2014-Dec-15 05:33N 25°53' W 079°33'20814.3
2014-Dec-14 15:00N 23°48' W 082°36'53714.3 020 / 121019.010.8 19.514.527.0
2014-Dec-13 01:26N 29°55' W 089°55'10 9.8
2014-Dec-13 00:23N 29°55' W 090°07'0 0.2
2014-Dec-12 23:29N 29°55' W 090°07'0 0.0
2014-Dec-12 21:23N 29°55' W 090°07'0 0.0
2014-Dec-12 20:32N 29°55' W 090°07'0 0.0
2014-Dec-12 11:28N 29°55' W 090°07'9 3.9
2014-Dec-12 09:09N 29°53' W 089°57'6 8.6
2014-Dec-12 08:26N 29°47' W 090°01'9 9.7
2014-Dec-12 07:33N 29°39' W 089°57'1210.5
2014-Dec-12 06:24N 29°33' W 089°46'88 7.1
2014-Dec-11 18:00N 28°06' W 090°00'24612.0 040 / 61025.0 5.4 2.019.0 8.324.0
2014-Dec-10 21:25N 29°12' W 094°31'1314.0
2014-Dec-10 20:30N 29°20' W 094°42'1111.9
2014-Dec-10 19:32N 29°28' W 094°51'1111.4
2014-Dec-10 18:33N 29°38' W 094°58'4 3.6
2014-Dec-10 17:33N 29°41' W 095°00'0 0.0
2014-Dec-10 16:33N 29°41' W 095°00'0 0.0
2014-Dec-10 15:33N 29°41' W 095°00'0 0.0
2014-Dec-10 14:33N 29°41' W 095°00'0 0.0
2014-Dec-10 13:33N 29°41' W 095°00'0 0.0
2014-Dec-10 12:31N 29°41' W 095°00'  

Dump ship's entire track history